createdAt,value
2022-08-25T00:00:35.619Z,19.40
2022-08-25T00:05:38.128Z,19.30
2022-08-25T00:10:40.772Z,19.30
2022-08-25T00:15:43.190Z,19.20
2022-08-25T00:20:49.050Z,19.10
2022-08-25T00:25:51.786Z,19.10
2022-08-25T00:30:54.160Z,19.10
2022-08-25T00:35:56.548Z,19.10
2022-08-25T00:41:08.120Z,19.10
2022-08-25T00:46:11.588Z,19.10
2022-08-25T00:51:19.469Z,19.00
2022-08-25T00:56:22.214Z,18.90
2022-08-25T01:01:24.872Z,18.90
2022-08-25T01:06:30.357Z,18.80
2022-08-25T01:11:32.983Z,18.80
2022-08-25T01:16:37.217Z,18.80
2022-08-25T01:21:51.155Z,18.80
2022-08-25T01:26:53.576Z,18.80
2022-08-25T01:32:03.295Z,18.80
2022-08-25T01:37:05.953Z,18.80
2022-08-25T01:42:11.592Z,18.80
2022-08-25T01:47:15.203Z,18.80
2022-08-25T01:52:45.262Z,18.70
2022-08-25T01:57:47.694Z,18.70
2022-08-25T02:02:54.130Z,18.80
2022-08-25T02:07:57.809Z,18.70
2022-08-25T02:13:00.488Z,18.70
2022-08-25T02:18:02.770Z,18.80
2022-08-25T02:23:05.967Z,18.80
2022-08-25T02:28:09.086Z,18.80
2022-08-25T02:33:11.753Z,18.90
2022-08-25T02:38:14.608Z,18.90
2022-08-25T02:43:16.882Z,18.80
2022-08-25T02:48:19.985Z,18.70
2022-08-25T02:53:22.544Z,18.60
2022-08-25T02:58:25.894Z,18.60
2022-08-25T03:03:29.577Z,18.40
2022-08-25T03:08:36.626Z,18.30
2022-08-25T03:13:41.203Z,18.00
2022-08-25T03:18:47.762Z,17.90
2022-08-25T03:29:28.793Z,17.70
2022-08-25T03:34:34.590Z,17.60
2022-08-25T03:39:48.241Z,17.50
2022-08-25T03:44:56.324Z,17.50
2022-08-25T03:50:12.665Z,17.40
2022-08-25T03:55:32.698Z,17.50
2022-08-25T04:00:35.063Z,17.30
2022-08-25T04:05:37.465Z,17.40
2022-08-25T04:10:44.589Z,17.40
2022-08-25T04:16:21.522Z,17.50
2022-08-25T04:21:30.013Z,17.40
2022-08-25T04:26:46.473Z,17.40
2022-08-25T04:31:57.903Z,17.40
2022-08-25T04:37:08.359Z,17.40
2022-08-25T04:42:28.923Z,17.40
2022-08-25T04:47:55.122Z,17.40
2022-08-25T04:58:48.625Z,17.50
2022-08-25T05:04:41.523Z,17.50
2022-08-25T05:10:37.845Z,17.50
2022-08-25T05:16:01.077Z,17.40
2022-08-25T05:44:33.153Z,17.30
2022-08-25T05:49:39.705Z,17.20
2022-08-25T05:54:59.757Z,17.30
2022-08-25T06:00:19.832Z,17.20
2022-08-25T06:05:32.307Z,17.10
2022-08-25T06:11:00.034Z,17.00
2022-08-25T06:16:10.800Z,17.00
2022-08-25T06:44:43.914Z,17.00
2022-08-25T06:50:10.897Z,16.90
2022-08-25T06:55:15.785Z,16.80
2022-08-25T07:11:34.966Z,16.90
2022-08-25T07:22:21.471Z,16.80
2022-08-25T07:28:17.930Z,16.60
2022-08-25T07:40:21.147Z,16.60
2022-08-25T09:24:18.292Z,18.50
2022-08-25T09:29:25.295Z,18.40
2022-08-25T09:34:40.244Z,18.50
2022-08-25T09:59:09.170Z,19.40
2022-08-25T10:04:38.179Z,19.40
2022-08-25T10:10:19.519Z,19.40
2022-08-25T10:15:32.744Z,19.20
2022-08-25T10:20:46.195Z,19.00
2022-08-25T10:26:04.551Z,19.00
2022-08-25T10:31:36.860Z,19.10
2022-08-25T10:37:34.206Z,19.20
2022-08-25T10:43:31.947Z,19.20
2022-08-25T10:48:48.267Z,19.50
2022-08-25T10:54:03.139Z,19.70
2022-08-25T11:00:06.087Z,20.00
2022-08-25T11:05:24.628Z,20.30
2022-08-25T11:10:58.295Z,20.50
2022-08-25T11:16:19.182Z,20.60
2022-08-25T11:28:08.265Z,20.20
2022-08-25T11:33:19.716Z,20.20
2022-08-25T11:38:47.814Z,20.40
2022-08-25T11:44:18.472Z,20.30
2022-08-25T11:55:23.417Z,20.40
2022-08-25T12:01:01.112Z,20.60
2022-08-25T12:06:41.200Z,20.50
2022-08-25T12:12:25.046Z,20.60
2022-08-25T12:17:43.823Z,20.60
2022-08-25T12:23:06.802Z,20.40
2022-08-25T12:28:57.888Z,20.70
2022-08-25T12:34:27.108Z,20.80
2022-08-25T12:39:36.750Z,20.60
2022-08-25T12:44:48.014Z,20.40
2022-08-25T12:49:52.081Z,20.90
2022-08-25T12:54:54.653Z,21.30
2022-08-25T13:00:01.770Z,21.00
2022-08-25T13:05:48.073Z,20.80
2022-08-25T13:10:57.398Z,20.40
2022-08-25T13:16:07.236Z,20.30
2022-08-25T13:21:25.184Z,20.20
2022-08-25T13:26:48.488Z,20.30
2022-08-25T13:32:12.636Z,20.30
2022-08-25T13:37:29.641Z,20.40
2022-08-25T13:42:33.049Z,20.20
2022-08-25T13:47:43.542Z,20.50
2022-08-25T13:52:55.234Z,20.40
2022-08-25T13:57:59.345Z,20.50
2022-08-25T14:03:08.777Z,20.30
2022-08-25T14:08:34.782Z,20.20
2022-08-25T14:13:39.435Z,20.20
2022-08-25T14:18:50.424Z,20.50
2022-08-25T14:23:54.187Z,20.50
2022-08-25T14:28:56.827Z,20.30
2022-08-25T14:34:05.501Z,20.20
2022-08-25T14:39:08.837Z,20.10
2022-08-25T14:44:11.449Z,20.20
2022-08-25T14:49:24.917Z,20.10
2022-08-25T14:54:28.173Z,20.10
2022-08-25T14:59:31.691Z,20.10
2022-08-25T15:04:37.313Z,19.90
2022-08-25T15:09:40.020Z,19.90
2022-08-25T15:14:42.198Z,20.10
2022-08-25T15:19:47.625Z,20.20
2022-08-25T15:24:50.118Z,20.10
2022-08-25T15:29:52.626Z,20.00
2022-08-25T15:34:56.142Z,20.00
2022-08-25T15:39:59.491Z,19.90
2022-08-25T15:45:01.655Z,19.70
2022-08-25T15:50:11.584Z,19.70
2022-08-25T15:55:14.545Z,19.70
2022-08-25T16:00:18.179Z,19.90
2022-08-25T16:05:25.667Z,19.80
2022-08-25T16:10:28.382Z,19.70
2022-08-25T16:15:31.523Z,19.50
2022-08-25T16:20:35.170Z,19.30
2022-08-25T16:25:46.689Z,19.20
2022-08-25T16:30:52.822Z,19.10
2022-08-25T16:36:07.240Z,19.00
2022-08-25T16:41:14.239Z,19.20
2022-08-25T16:46:19.425Z,19.40
2022-08-25T16:51:29.752Z,19.40
2022-08-25T16:56:37.060Z,19.30
2022-08-25T17:01:42.001Z,19.50
2022-08-25T17:06:49.560Z,19.50
2022-08-25T17:11:56.883Z,19.40
2022-08-25T17:16:59.197Z,19.30
2022-08-25T17:22:01.438Z,19.20
2022-08-25T17:27:05.700Z,19.30
2022-08-25T17:32:08.985Z,19.10
2022-08-25T17:37:13.658Z,19.20
2022-08-25T17:42:16.589Z,19.50
2022-08-25T17:47:20.400Z,19.60
2022-08-25T17:52:25.080Z,19.50
2022-08-25T17:57:27.907Z,19.30
2022-08-25T18:02:30.659Z,19.20
2022-08-25T18:07:33.174Z,19.00
2022-08-25T18:12:36.692Z,19.30
2022-08-25T18:17:39.661Z,19.30
2022-08-25T18:22:44.015Z,19.00
2022-08-25T18:27:46.422Z,18.70
2022-08-25T18:32:50.443Z,18.50
2022-08-25T18:38:11.630Z,18.40
2022-08-25T18:43:15.255Z,18.40
2022-08-25T18:48:20.137Z,18.30
2022-08-25T18:53:30.063Z,18.10
2022-08-25T18:58:39.106Z,18.00
2022-08-25T19:03:44.520Z,17.80
2022-08-25T19:08:47.473Z,17.60
2022-08-25T19:13:51.005Z,17.40
2022-08-25T19:18:53.660Z,17.30
2022-08-25T19:23:55.848Z,17.20
2022-08-25T19:28:58.014Z,17.10
2022-08-25T19:34:00.751Z,16.90
2022-08-25T19:39:06.626Z,16.80
2022-08-25T19:44:11.941Z,16.70
2022-08-25T19:49:22.675Z,16.60
2022-08-25T19:54:32.529Z,16.50
2022-08-25T19:59:42.714Z,16.40
2022-08-25T20:04:49.664Z,16.30
2022-08-25T20:09:53.676Z,16.20
2022-08-25T20:14:56.568Z,16.20
2022-08-25T20:20:04.645Z,16.10
2022-08-25T20:25:14.092Z,16.10
2022-08-25T20:30:22.171Z,16.00
2022-08-25T20:35:27.158Z,15.90
2022-08-25T20:40:31.073Z,15.80
2022-08-25T20:45:34.249Z,15.70
2022-08-25T20:50:39.083Z,15.70
2022-08-25T20:55:43.757Z,15.60
2022-08-25T21:00:47.219Z,15.50
2022-08-25T21:05:53.531Z,15.40
2022-08-25T21:10:56.605Z,15.40
2022-08-25T21:16:02.181Z,15.30
2022-08-25T21:21:15.596Z,15.30
2022-08-25T21:26:25.046Z,15.20
2022-08-25T21:31:29.489Z,15.10
2022-08-25T21:36:32.132Z,15.10
2022-08-25T21:41:36.863Z,15.00
2022-08-25T21:46:41.650Z,15.00
2022-08-25T21:52:00.355Z,14.90
2022-08-25T21:57:05.669Z,14.90
2022-08-25T22:02:11.433Z,14.80
2022-08-25T22:07:14.020Z,14.80
2022-08-25T22:12:16.351Z,14.80
2022-08-25T22:17:21.018Z,14.70
2022-08-25T22:22:23.981Z,14.70
2022-08-25T22:27:26.444Z,14.70
2022-08-25T22:32:28.648Z,14.60
2022-08-25T22:37:31.126Z,14.60
2022-08-25T22:42:36.393Z,14.60
2022-08-25T22:47:38.792Z,14.50
2022-08-25T22:52:43.668Z,14.50
2022-08-25T22:57:47.808Z,14.40
2022-08-25T23:02:53.235Z,14.40
2022-08-25T23:07:55.646Z,14.40
2022-08-25T23:12:58.033Z,14.30
2022-08-25T23:18:00.213Z,14.30
2022-08-25T23:23:02.832Z,14.20
2022-08-25T23:28:05.247Z,14.10
2022-08-25T23:33:07.925Z,14.10
2022-08-25T23:38:12.348Z,14.00
2022-08-25T23:43:14.936Z,14.00
2022-08-25T23:48:18.622Z,14.00
2022-08-25T23:53:21.596Z,13.90
2022-08-25T23:58:24.170Z,13.90
